Avon, Illinois
Current Conditions -  °F | °C
As of 11:55 PM on Friday 19 Dec 2014 (Local Time) from KMQB Reporting Station
Overcast Overcast  
Wind Chill: 30°   Ceiling: 4800
Heat Index: 30°   Visibility: 7mi
Dew Point: 26°   Wind: 0mph
Humidity: 85%   Direction: NA
Pressure: 30.29"   Gusts: NA
Location:  40.66°N, 90.43°W
Report Text: KMQB 200555Z AUTO 00000KT 7SM OVC048 M01/M03 A3029 RMK AO2 T10091031 11008 21017 400101038
Loading
Personal Weather Stations






























Interactive Weather Map New forecast layout! Learn more

10-Day Weather Forecast

Advertisements
Track Severe Weather on mobile